CST,Max TemperatureF,Mean TemperatureF,Min TemperatureF,Max Dew PointF,MeanDew PointF,Min DewpointF,Max Humidity, Mean Humidity, Min Humidity, Max Sea Level PressureIn, Mean Sea Level PressureIn, Min Sea Level PressureIn, Max VisibilityMiles, Mean VisibilityMiles, Min VisibilityMiles, Max Wind SpeedMPH, Mean Wind SpeedMPH, Max Gust SpeedMPH,PrecipitationIn, CloudCover, Events, WindDirDegrees
2012-11-1,57,46,36,40,35,30,82,64,39,30.01,29.96,29.94,10,9,3,16,7,23,0.00,2,,327
2012-11-2,51,42,34,32,30,29,82,63,43,30.09,30.04,30.00,10,10,4,16,7,24,0.00,1,,79
2012-11-3,55,44,34,32,30,25,84,58,31,30.20,30.16,30.09,10,10,7,9,4,,0.00,4,,17
2012-11-4,52,46,39,43,37,31,88,76,56,30.20,30.13,30.04,10,9,3,15,3,17,0.08,8,Rain,123
2012-11-5,45,43,41,43,40,38,91,86,76,30.15,30.10,30.04,7,4,1,15,9,17,0.08,8,Rain,113
2012-11-6,55,48,42,41,38,32,88,71,51,30.04,29.95,29.90,10,8,2,22,13,28,0.00,7,Rain,285
2012-11-7,49,41,32,37,34,30,91,71,52,30.15,30.09,30.00,10,10,10,17,10,24,0.00,5,,9
2012-11-8,64,48,32,38,35,30,92,66,31,30.09,29.97,29.89,10,10,7,17,10,22,0.00,0,,149
2012-11-9,60,50,39,49,42,36,87,73,56,29.92,29.84,29.74,10,10,10,15,8,16,0.00,1,,103
2012-11-10,78,66,54,57,54,49,88,64,40,29.74,29.62,29.53,10,10,7,33,16,39,0.00,2,,170
2012-11-11,67,46,24,57,31,18,92,79,60,30.11,29.87,29.60,10,9,2,22,16,30,0.21,5,Rain,292
2012-11-12,38,30,23,23,20,17,83,69,46,30.37,30.22,30.11,10,10,10,31,14,34,0.00,0,,268
2012-11-13,52,36,20,34,26,17,86,66,36,30.40,30.34,30.28,10,10,10,17,8,22,0.00,1,,166
2012-11-14,59,46,33,34,30,23,91,62,25,30.33,30.27,30.22,10,10,10,21,10,24,0.00,0,,181
2012-11-15,61,48,33,34,32,30,85,58,30,30.43,30.28,30.21,10,10,10,13,8,16,0.00,2,,284
2012-11-16,55,39,23,32,28,21,89,71,36,30.47,30.41,30.34,10,9,2,10,6,,0.00,0,,181
2012-11-17,64,48,31,39,32,28,92,63,27,30.35,30.29,30.22,10,9,5,24,10,31,0.00,1,,155
2012-11-18,64,54,44,41,32,29,69,46,26,30.24,30.16,30.10,10,10,10,20,13,24,0.00,5,Rain,164
2012-11-19,63,51,39,46,41,36,86,71,51,30.11,30.05,30.00,10,10,5,17,10,18,0.07,1,Rain,201
2012-11-20,62,49,36,41,35,30,93,68,30,30.20,30.15,30.07,10,8,3,10,7,,0.00,0,,274
2012-11-21,73,55,37,44,39,34,89,59,27,30.14,30.01,29.84,10,9,5,26,11,31,0.00,0,,185
2012-11-22,68,53,37,46,37,26,73,57,28,30.15,29.87,29.73,10,10,10,28,17,37,0.00,0,,248
2012-11-23,38,28,19,27,16,14,78,58,43,30.41,30.34,30.16,10,10,10,28,18,37,0.00,3,,309
2012-11-24,40,28,15,24,17,11,84,63,39,30.37,30.10,29.83,10,10,10,18,6,22,0.00,1,,171
2012-11-25,39,36,32,28,25,23,74,63,55,30.17,29.98,29.83,10,10,10,16,7,16,0.00,4,,341
2012-11-26,34,23,12,24,13,6,78,58,39,30.44,30.34,30.17,10,10,10,21,9,22,0.00,3,,347
2012-11-27,39,26,12,20,13,7,82,64,34,30.43,30.29,30.15,10,10,10,18,8,22,0.00,0,,218
2012-11-28,49,33,17,26,21,14,89,67,30,30.40,30.27,30.12,10,9,5,14,6,,0.00,0,,203
2012-11-29,55,42,28,34,30,25,90,72,45,30.11,30.01,29.94,10,9,4,12,7,,0.00,0,,161
2012-11-30,52,39,26,37,32,24,95,81,55,30.07,30.02,29.95,10,5,0,9,3,,0.00,1,Fog,89